sensor_id;sensor_type;location;lat;lon;timestamp;pressure;altitude;pressure_sealevel;temperature;humidity
6528;BME280;64597;42.664;23.256;2023-05-03T00:00:59;94818.84;;;13.04;41.94
6528;BME280;64597;42.664;23.256;2023-05-03T00:03:26;94821.72;;;13.03;41.74
6528;BME280;64597;42.664;23.256;2023-05-03T00:05:52;94823.50;;;12.97;41.68
6528;BME280;64597;42.664;23.256;2023-05-03T00:08:18;94826.59;;;12.94;41.35
6528;BME280;64597;42.664;23.256;2023-05-03T00:10:43;94830.56;;;12.92;41.57
6528;BME280;64597;42.664;23.256;2023-05-03T00:13:09;94831.75;;;12.84;41.58
6528;BME280;64597;42.664;23.256;2023-05-03T00:15:34;94832.00;;;12.83;41.36
6528;BME280;64597;42.664;23.256;2023-05-03T00:18:00;94852.50;;;12.76;41.75
6528;BME280;64597;42.664;23.256;2023-05-03T00:20:25;94851.72;;;12.75;41.59
6528;BME280;64597;42.664;23.256;2023-05-03T00:22:51;94844.97;;;12.84;41.62
6528;BME280;64597;42.664;23.256;2023-05-03T00:25:16;94850.91;;;12.91;41.18
6528;BME280;64597;42.664;23.256;2023-05-03T00:27:42;94844.16;;;12.84;41.16
6528;BME280;64597;42.664;23.256;2023-05-03T00:30:08;94856.94;;;12.87;40.72
6528;BME280;64597;42.664;23.256;2023-05-03T00:32:34;94850.25;;;12.84;40.95
6528;BME280;64597;42.664;23.256;2023-05-03T00:35:00;94850.25;;;12.68;41.06
6528;BME280;64597;42.664;23.256;2023-05-03T00:37:25;94845.31;;;12.55;41.15
6528;BME280;64597;42.664;23.256;2023-05-03T00:39:51;94857.06;;;12.64;41.44
6528;BME280;64597;42.664;23.256;2023-05-03T00:42:17;94848.34;;;12.63;41.73
6528;BME280;64597;42.664;23.256;2023-05-03T00:44:43;94864.44;;;12.62;41.48
6528;BME280;64597;42.664;23.256;2023-05-03T00:47:08;94859.41;;;12.60;41.81
6528;BME280;64597;42.664;23.256;2023-05-03T00:49:34;94864.69;;;12.60;41.92
6528;BME280;64597;42.664;23.256;2023-05-03T00:52:00;94865.41;;;12.56;41.94
6528;BME280;64597;42.664;23.256;2023-05-03T00:54:27;94862.75;;;12.56;41.82
6528;BME280;64597;42.664;23.256;2023-05-03T00:56:53;94858.28;;;12.56;41.96
6528;BME280;64597;42.664;23.256;2023-05-03T00:59:19;94864.19;;;12.47;41.84
6528;BME280;64597;42.664;23.256;2023-05-03T01:01:52;94855.03;;;12.37;41.48
6528;BME280;64597;42.664;23.256;2023-05-03T01:04:18;94856.72;;;12.43;41.10
6528;BME280;64597;42.664;23.256;2023-05-03T01:06:51;94848.34;;;12.47;41.25
6528;BME280;64597;42.664;23.256;2023-05-03T01:09:42;94840.88;;;12.43;40.96
6528;BME280;64597;42.664;23.256;2023-05-03T01:17:11;94837.75;;;12.18;41.52
6528;BME280;64597;42.664;23.256;2023-05-03T01:19:46;94835.47;;;12.22;41.43
6528;BME280;64597;42.664;23.256;2023-05-03T01:23:27;94830.25;;;12.27;41.27
6528;BME280;64597;42.664;23.256;2023-05-03T01:25:16;94835.94;;;12.19;41.61
6528;BME280;64597;42.664;23.256;2023-05-03T01:27:42;94824.03;;;12.05;41.91
6528;BME280;64597;42.664;23.256;2023-05-03T01:30:09;94850.34;;;12.11;42.04
6528;BME280;64597;42.664;23.256;2023-05-03T01:35:07;94835.75;;;12.09;42.10
6528;BME280;64597;42.664;23.256;2023-05-03T01:37:34;94829.81;;;12.02;41.92
6528;BME280;64597;42.664;23.256;2023-05-03T01:40:01;94821.53;;;11.98;42.28
6528;BME280;64597;42.664;23.256;2023-05-03T01:42:29;94804.13;;;11.86;42.02
6528;BME280;64597;42.664;23.256;2023-05-03T01:44:56;94826.13;;;12.03;42.23
6528;BME280;64597;42.664;23.256;2023-05-03T01:47:22;94821.34;;;12.00;42.30
6528;BME280;64597;42.664;23.256;2023-05-03T01:49:48;94813.16;;;12.01;41.72
6528;BME280;64597;42.664;23.256;2023-05-03T01:52:14;94806.25;;;12.00;42.11
6528;BME280;64597;42.664;23.256;2023-05-03T01:54:39;94805.78;;;12.03;42.13
6528;BME280;64597;42.664;23.256;2023-05-03T01:57:05;94799.88;;;12.13;41.98
6528;BME280;64597;42.664;23.256;2023-05-03T01:59:30;94797.09;;;12.19;41.52
6528;BME280;64597;42.664;23.256;2023-05-03T02:01:56;94793.97;;;12.22;41.61
6528;BME280;64597;42.664;23.256;2023-05-03T02:04:21;94796.03;;;12.20;41.67
6528;BME280;64597;42.664;23.256;2023-05-03T02:06:47;94774.09;;;12.03;41.78
6528;BME280;64597;42.664;23.256;2023-05-03T02:09:12;94783.38;;;12.06;41.88
6528;BME280;64597;42.664;23.256;2023-05-03T02:11:38;94783.94;;;12.08;41.93
6528;BME280;64597;42.664;23.256;2023-05-03T02:14:03;94758.94;;;11.99;41.71
6528;BME280;64597;42.664;23.256;2023-05-03T02:16:28;94775.84;;;12.14;41.84
6528;BME280;64597;42.664;23.256;2023-05-03T02:18:54;94769.84;;;12.19;41.97
6528;BME280;64597;42.664;23.256;2023-05-03T02:21:24;94768.88;;;12.08;41.77
6528;BME280;64597;42.664;23.256;2023-05-03T02:23:50;94771.63;;;12.13;41.92
6528;BME280;64597;42.664;23.256;2023-05-03T02:26:15;94775.94;;;12.19;41.52
6528;BME280;64597;42.664;23.256;2023-05-03T02:28:41;94774.44;;;12.23;41.73
6528;BME280;64597;42.664;23.256;2023-05-03T02:31:06;94764.81;;;12.17;41.81
6528;BME280;64597;42.664;23.256;2023-05-03T02:33:32;94778.34;;;12.37;41.78
6528;BME280;64597;42.664;23.256;2023-05-03T02:35:57;94788.53;;;12.29;41.81
6528;BME280;64597;42.664;23.256;2023-05-03T02:38:22;94781.13;;;12.14;42.09
6528;BME280;64597;42.664;23.256;2023-05-03T02:40:48;94779.38;;;12.03;42.22
6528;BME280;64597;42.664;23.256;2023-05-03T02:43:16;94789.13;;;12.03;42.26
6528;BME280;64597;42.664;23.256;2023-05-03T02:45:42;94786.81;;;11.78;42.41
6528;BME280;64597;42.664;23.256;2023-05-03T02:48:08;94781.97;;;11.87;42.66
6528;BME280;64597;42.664;23.256;2023-05-03T02:50:38;94792.97;;;11.95;42.51
6528;BME280;64597;42.664;23.256;2023-05-03T02:53:04;94776.06;;;11.96;42.35
6528;BME280;64597;42.664;23.256;2023-05-03T02:55:29;94756.81;;;11.84;42.39
6528;BME280;64597;42.664;23.256;2023-05-03T02:57:55;94782.41;;;11.95;42.45
6528;BME280;64597;42.664;23.256;2023-05-03T03:00:21;94774.72;;;11.94;42.49
6528;BME280;64597;42.664;23.256;2023-05-03T03:02:46;94776.63;;;11.98;42.48
6528;BME280;64597;42.664;23.256;2023-05-03T03:05:12;94792.00;;;12.01;42.69
6528;BME280;64597;42.664;23.256;2023-05-03T03:07:37;94796.81;;;12.04;42.67
6528;BME280;64597;42.664;23.256;2023-05-03T03:10:05;94789.13;;;12.03;42.62
6528;BME280;64597;42.664;23.256;2023-05-03T03:12:31;94787.38;;;12.08;42.74
6528;BME280;64597;42.664;23.256;2023-05-03T03:14:57;94790.41;;;12.00;42.91
6528;BME280;64597;42.664;23.256;2023-05-03T03:17:22;94801.47;;;11.97;42.87
6528;BME280;64597;42.664;23.256;2023-05-03T03:19:51;94803.53;;;11.95;42.78
6528;BME280;64597;42.664;23.256;2023-05-03T03:22:16;94809.56;;;11.79;43.30
6528;BME280;64597;42.664;23.256;2023-05-03T03:24:42;94809.56;;;11.79;43.33
6528;BME280;64597;42.664;23.256;2023-05-03T03:27:07;94797.97;;;11.80;43.21
6528;BME280;64597;42.664;23.256;2023-05-03T03:29:34;94808.53;;;11.80;43.24
6528;BME280;64597;42.664;23.256;2023-05-03T03:31:59;94817.91;;;11.88;43.20
6528;BME280;64597;42.664;23.256;2023-05-03T03:34:25;94821.59;;;11.87;43.08
6528;BME280;64597;42.664;23.256;2023-05-03T03:36:51;94832.03;;;11.93;43.00
6528;BME280;64597;42.664;23.256;2023-05-03T03:39:16;94838.53;;;12.02;42.83
6528;BME280;64597;42.664;23.256;2023-05-03T03:41:42;94826.25;;;11.96;42.90
6528;BME280;64597;42.664;23.256;2023-05-03T03:44:08;94822.50;;;11.92;42.85
6528;BME280;64597;42.664;23.256;2023-05-03T03:46:34;94827.88;;;11.97;42.63
6528;BME280;64597;42.664;23.256;2023-05-03T03:48:59;94821.34;;;12.00;42.94
6528;BME280;64597;42.664;23.256;2023-05-03T03:51:25;94803.63;;;12.00;42.88
6528;BME280;64597;42.664;23.256;2023-05-03T03:53:51;94807.91;;;12.18;42.57
6528;BME280;64597;42.664;23.256;2023-05-03T03:56:17;94827.88;;;11.97;43.38
6528;BME280;64597;42.664;23.256;2023-05-03T03:58:42;94837.41;;;11.98;43.12
6528;BME280;64597;42.664;23.256;2023-05-03T04:01:08;94838.59;;;11.91;43.30
6528;BME280;64597;42.664;23.256;2023-05-03T04:03:34;94840.53;;;11.95;43.42
6528;BME280;64597;42.664;23.256;2023-05-03T04:06:00;94842.13;;;11.96;43.73
6528;BME280;64597;42.664;23.256;2023-05-03T04:08:25;94847.94;;;12.10;43.82
6528;BME280;64597;42.664;23.256;2023-05-03T04:10:50;94852.59;;;12.19;43.82
6528;BME280;64597;42.664;23.256;2023-05-03T04:13:16;94841.06;;;12.25;43.81
6528;BME280;64597;42.664;23.256;2023-05-03T04:15:41;94787.81;;;11.89;43.63
6528;BME280;64597;42.664;23.256;2023-05-03T04:18:07;94846.19;;;12.15;43.02
6528;BME280;64597;42.664;23.256;2023-05-03T04:20:33;94837.75;;;12.02;42.88
6528;BME280;64597;42.664;23.256;2023-05-03T04:22:58;94860.59;;;12.08;43.02
6528;BME280;64597;42.664;23.256;2023-05-03T04:25:24;94862.56;;;12.01;43.13
6528;BME280;64597;42.664;23.256;2023-05-03T04:27:50;94865.06;;;12.07;42.80
6528;BME280;64597;42.664;23.256;2023-05-03T04:30:15;94867.50;;;11.97;43.22
6528;BME280;64597;42.664;23.256;2023-05-03T04:32:42;94875.53;;;12.02;43.44
6528;BME280;64597;42.664;23.256;2023-05-03T04:35:08;94861.91;;;11.82;43.44
6528;BME280;64597;42.664;23.256;2023-05-03T04:37:35;94887.16;;;12.01;43.41
6528;BME280;64597;42.664;23.256;2023-05-03T04:40:01;94883.56;;;12.07;43.18
6528;BME280;64597;42.664;23.256;2023-05-03T04:42:29;94895.84;;;12.13;43.34
6528;BME280;64597;42.664;23.256;2023-05-03T04:44:54;94890.56;;;12.13;43.71
6528;BME280;64597;42.664;23.256;2023-05-03T04:47:20;94901.13;;;12.13;43.53
6528;BME280;64597;42.664;23.256;2023-05-03T04:49:45;94902.63;;;12.09;43.29
6528;BME280;64597;42.664;23.256;2023-05-03T04:52:11;94904.59;;;12.02;43.22
6528;BME280;64597;42.664;23.256;2023-05-03T04:54:36;94901.53;;;11.94;43.55
6528;BME280;64597;42.664;23.256;2023-05-03T04:57:02;94909.09;;;11.90;43.72
6528;BME280;64597;42.664;23.256;2023-05-03T04:59:27;94898.34;;;11.80;43.69
6528;BME280;64597;42.664;23.256;2023-05-03T05:01:52;94906.34;;;11.97;43.85
6528;BME280;64597;42.664;23.256;2023-05-03T05:04:18;94913.56;;;12.01;43.87
6528;BME280;64597;42.664;23.256;2023-05-03T05:06:43;94906.81;;;11.94;44.16
6528;BME280;64597;42.664;23.256;2023-05-03T05:09:20;94909.22;;;11.95;44.24
6528;BME280;64597;42.664;23.256;2023-05-03T05:11:46;94924.84;;;11.97;45.08
6528;BME280;64597;42.664;23.256;2023-05-03T05:14:11;94918.53;;;11.86;45.60
6528;BME280;64597;42.664;23.256;2023-05-03T05:16:37;94917.53;;;11.87;46.75
6528;BME280;64597;42.664;23.256;2023-05-03T05:19:03;94925.19;;;11.89;47.14
6528;BME280;64597;42.664;23.256;2023-05-03T05:21:28;94920.31;;;12.09;61.96
6528;BME280;64597;42.664;23.256;2023-05-03T05:23:54;94922.38;;;12.47;49.01
6528;BME280;64597;42.664;23.256;2023-05-03T05:26:19;94930.72;;;12.27;48.47
6528;BME280;64597;42.664;23.256;2023-05-03T05:28:45;94937.06;;;12.14;48.65
6528;BME280;64597;42.664;23.256;2023-05-03T05:31:10;94936.88;;;12.04;48.98
6528;BME280;64597;42.664;23.256;2023-05-03T05:33:36;94945.94;;;12.08;49.85
6528;BME280;64597;42.664;23.256;2023-05-03T05:36:01;94948.50;;;12.03;49.77
6528;BME280;64597;42.664;23.256;2023-05-03T05:38:27;94948.16;;;12.00;49.56
6528;BME280;64597;42.664;23.256;2023-05-03T05:40:53;94946.31;;;12.00;50.43
6528;BME280;64597;42.664;23.256;2023-05-03T05:43:18;94943.94;;;11.87;49.47
6528;BME280;64597;42.664;23.256;2023-05-03T05:45:44;94954.63;;;11.81;49.60
6528;BME280;64597;42.664;23.256;2023-05-03T05:48:09;94960.34;;;11.78;49.92
6528;BME280;64597;42.664;23.256;2023-05-03T05:50:35;94949.34;;;11.81;49.59
6528;BME280;64597;42.664;23.256;2023-05-03T05:53:00;94952.88;;;11.86;49.74
6528;BME280;64597;42.664;23.256;2023-05-03T05:55:26;94954.84;;;11.91;49.87
6528;BME280;64597;42.664;23.256;2023-05-03T05:57:51;94955.66;;;11.91;50.82
6528;BME280;64597;42.664;23.256;2023-05-03T06:00:17;94949.88;;;11.94;49.55
6528;BME280;64597;42.664;23.256;2023-05-03T06:02:43;94952.66;;;11.99;49.73
6528;BME280;64597;42.664;23.256;2023-05-03T06:05:10;94957.94;;;11.99;50.21
6528;BME280;64597;42.664;23.256;2023-05-03T06:07:36;94962.28;;;12.05;50.50
6528;BME280;64597;42.664;23.256;2023-05-03T06:10:03;94956.06;;;12.11;50.78
6528;BME280;64597;42.664;23.256;2023-05-03T06:12:29;94963.63;;;12.19;51.45
6528;BME280;64597;42.664;23.256;2023-05-03T06:14:54;94966.38;;;12.24;50.84
6528;BME280;64597;42.664;23.256;2023-05-03T06:17:20;94959.28;;;12.13;49.73
6528;BME280;64597;42.664;23.256;2023-05-03T06:19:47;94948.50;;;12.03;49.98
6528;BME280;64597;42.664;23.256;2023-05-03T06:22:14;94955.97;;;11.95;50.52
6528;BME280;64597;42.664;23.256;2023-05-03T06:24:39;94947.81;;;11.96;50.71
6528;BME280;64597;42.664;23.256;2023-05-03T06:27:05;94943.13;;;11.87;50.30
6528;BME280;64597;42.664;23.256;2023-05-03T06:29:30;94923.81;;;11.86;50.72
6528;BME280;64597;42.664;23.256;2023-05-03T06:31:56;94937.59;;;12.00;50.97
6528;BME280;64597;42.664;23.256;2023-05-03T06:34:21;94935.38;;;12.08;51.03
6528;BME280;64597;42.664;23.256;2023-05-03T06:36:48;94928.78;;;12.22;50.96
6528;BME280;64597;42.664;23.256;2023-05-03T06:39:14;94926.63;;;12.19;50.67
6528;BME280;64597;42.664;23.256;2023-05-03T06:41:40;94920.25;;;12.04;50.65
6528;BME280;64597;42.664;23.256;2023-05-03T06:44:05;94922.78;;;12.27;50.95
6528;BME280;64597;42.664;23.256;2023-05-03T06:46:33;94917.75;;;12.25;50.74
6528;BME280;64597;42.664;23.256;2023-05-03T06:48:59;94914.16;;;12.31;50.83
6528;BME280;64597;42.664;23.256;2023-05-03T06:51:26;94901.78;;;12.20;49.58
6528;BME280;64597;42.664;23.256;2023-05-03T06:53:54;94911.44;;;12.26;49.23
6528;BME280;64597;42.664;23.256;2023-05-03T06:56:21;94908.94;;;12.08;49.48
6528;BME280;64597;42.664;23.256;2023-05-03T06:58:46;94905.88;;;12.00;50.29
6528;BME280;64597;42.664;23.256;2023-05-03T07:01:12;94919.78;;;11.95;50.17
6528;BME280;64597;42.664;23.256;2023-05-03T07:03:37;94904.63;;;11.91;50.16
6528;BME280;64597;42.664;23.256;2023-05-03T07:06:03;94895.44;;;11.93;49.96
6528;BME280;64597;42.664;23.256;2023-05-03T07:08:29;94910.81;;;11.96;50.41
6528;BME280;64597;42.664;23.256;2023-05-03T07:10:55;94894.88;;;11.91;50.24
6528;BME280;64597;42.664;23.256;2023-05-03T07:13:21;94903.69;;;11.97;50.45
6528;BME280;64597;42.664;23.256;2023-05-03T07:15:46;94926.34;;;11.93;49.90
6528;BME280;64597;42.664;23.256;2023-05-03T07:18:12;94892.97;;;11.75;50.23
6528;BME280;64597;42.664;23.256;2023-05-03T07:20:37;94904.03;;;12.00;50.24
6528;BME280;64597;42.664;23.256;2023-05-03T07:23:03;94912.03;;;12.17;50.38
6528;BME280;64597;42.664;23.256;2023-05-03T07:25:28;94928.78;;;12.22;49.80
6528;BME280;64597;42.664;23.256;2023-05-03T07:27:54;94915.84;;;12.09;49.62
6528;BME280;64597;42.664;23.256;2023-05-03T07:30:19;94939.59;;;12.21;49.83
6528;BME280;64597;42.664;23.256;2023-05-03T07:32:46;94933.78;;;12.35;49.04
6528;BME280;64597;42.664;23.256;2023-05-03T07:35:11;94932.28;;;12.39;49.67
6528;BME280;64597;42.664;23.256;2023-05-03T07:37:37;94927.31;;;12.43;49.02
6528;BME280;64597;42.664;23.256;2023-05-03T07:40:04;94925.88;;;12.35;49.48
6528;BME280;64597;42.664;23.256;2023-05-03T07:42:31;94905.19;;;12.32;49.50
6528;BME280;64597;42.664;23.256;2023-05-03T07:44:56;94926.22;;;12.56;49.18
6528;BME280;64597;42.664;23.256;2023-05-03T07:47:22;94925.28;;;12.62;49.83
6528;BME280;64597;42.664;23.256;2023-05-03T07:49:47;94930.53;;;12.73;49.15
6528;BME280;64597;42.664;23.256;2023-05-03T07:52:15;94918.00;;;12.69;49.04
6528;BME280;64597;42.664;23.256;2023-05-03T07:54:41;94921.97;;;12.83;48.38
6528;BME280;64597;42.664;23.256;2023-05-03T07:57:07;94915.22;;;12.75;48.49
6528;BME280;64597;42.664;23.256;2023-05-03T07:59:33;94923.22;;;12.80;48.79
6528;BME280;64597;42.664;23.256;2023-05-03T08:01:58;94910.72;;;12.76;48.77
6528;BME280;64597;42.664;23.256;2023-05-03T08:04:24;94931.19;;;12.97;48.99
6528;BME280;64597;42.664;23.256;2023-05-03T08:06:49;94946.47;;;13.06;48.53
6528;BME280;64597;42.664;23.256;2023-05-03T08:09:15;94934.59;;;13.09;48.42
6528;BME280;64597;42.664;23.256;2023-05-03T08:11:40;94935.16;;;13.11;48.73
6528;BME280;64597;42.664;23.256;2023-05-03T08:14:06;94934.19;;;13.34;48.29
6528;BME280;64597;42.664;23.256;2023-05-03T08:16:31;94944.13;;;13.43;48.24
6528;BME280;64597;42.664;23.256;2023-05-03T08:18:57;94937.38;;;13.69;47.34
6528;BME280;64597;42.664;23.256;2023-05-03T08:21:22;94911.63;;;13.86;47.72
6528;BME280;64597;42.664;23.256;2023-05-03T08:23:49;94939.63;;;14.20;46.50
6528;BME280;64597;42.664;23.256;2023-05-03T08:26:15;94943.78;;;14.33;46.71
6528;BME280;64597;42.664;23.256;2023-05-03T08:28:41;94941.81;;;14.45;46.07
6528;BME280;64597;42.664;23.256;2023-05-03T08:31:07;94934.19;;;14.80;46.15
6528;BME280;64597;42.664;23.256;2023-05-03T08:33:32;94927.66;;;15.19;45.33
6528;BME280;64597;42.664;23.256;2023-05-03T08:35:58;94919.22;;;15.27;44.76
6528;BME280;64597;42.664;23.256;2023-05-03T08:38:23;94937.34;;;15.72;42.96
6528;BME280;64597;42.664;23.256;2023-05-03T08:40:54;94929.47;;;16.44;42.00
6528;BME280;64597;42.664;23.256;2023-05-03T08:43:22;94925.38;;;17.28;40.45
6528;BME280;64597;42.664;23.256;2023-05-03T08:45:51;94911.28;;;17.53;39.08
6528;BME280;64597;42.664;23.256;2023-05-03T08:48:17;94910.16;;;17.84;39.00
6528;BME280;64597;42.664;23.256;2023-05-03T08:50:43;94930.06;;;18.22;38.47
6528;BME280;64597;42.664;23.256;2023-05-03T08:53:09;94924.19;;;18.25;38.16
6528;BME280;64597;42.664;23.256;2023-05-03T08:55:36;94939.44;;;18.09;39.35
6528;BME280;64597;42.664;23.256;2023-05-03T08:58:05;94922.69;;;17.84;39.08
6528;BME280;64597;42.664;23.256;2023-05-03T09:00:35;94931.50;;;17.79;39.39
6528;BME280;64597;42.664;23.256;2023-05-03T09:03:00;94923.81;;;17.68;39.28
6528;BME280;64597;42.664;23.256;2023-05-03T09:10:31;94923.25;;;17.61;39.32
6528;BME280;64597;42.664;23.256;2023-05-03T09:12:59;94930.13;;;18.07;39.36
6528;BME280;64597;42.664;23.256;2023-05-03T09:15:30;94922.53;;;18.34;38.62
6528;BME280;64597;42.664;23.256;2023-05-03T09:18:09;94916.09;;;18.50;38.27
6528;BME280;64597;42.664;23.256;2023-05-03T09:20:35;94910.50;;;18.37;38.57
6528;BME280;64597;42.664;23.256;2023-05-03T09:23:01;94907.06;;;18.31;38.63
6528;BME280;64597;42.664;23.256;2023-05-03T09:25:47;94910.69;;;18.60;38.47
6528;BME280;64597;42.664;23.256;2023-05-03T09:28:13;94905.19;;;18.90;37.99
6528;BME280;64597;42.664;23.256;2023-05-03T09:30:40;94894.06;;;18.73;37.83
6528;BME280;64597;42.664;23.256;2023-05-03T09:33:10;94895.22;;;18.57;38.06
6528;BME280;64597;42.664;23.256;2023-05-03T09:35:37;94875.50;;;18.48;38.19
6528;BME280;64597;42.664;23.256;2023-05-03T09:38:03;94881.28;;;18.70;38.38
6528;BME280;64597;42.664;23.256;2023-05-03T09:40:29;94883.66;;;18.72;38.20
6528;BME280;64597;42.664;23.256;2023-05-03T09:45:31;94885.75;;;18.75;38.51
6528;BME280;64597;42.664;23.256;2023-05-03T09:47:57;94870.44;;;18.90;37.34
6528;BME280;64597;42.664;23.256;2023-05-03T09:50:23;94876.09;;;19.18;37.50
6528;BME280;64597;42.664;23.256;2023-05-03T09:52:50;94880.47;;;19.42;37.22
6528;BME280;64597;42.664;23.256;2023-05-03T09:55:15;94872.28;;;19.29;36.88
6528;BME280;64597;42.664;23.256;2023-05-03T09:57:42;94862.03;;;19.41;37.19
6528;BME280;64597;42.664;23.256;2023-05-03T10:00:11;94859.13;;;19.37;36.99
6528;BME280;64597;42.664;23.256;2023-05-03T10:02:39;94855.66;;;19.37;37.39
6528;BME280;64597;42.664;23.256;2023-05-03T10:05:06;94853.69;;;19.47;37.30
6528;BME280;64597;42.664;23.256;2023-05-03T10:07:35;94859.34;;;19.69;36.97
6528;BME280;64597;42.664;23.256;2023-05-03T10:10:05;94858.69;;;19.83;36.54
6528;BME280;64597;42.664;23.256;2023-05-03T10:12:32;94859.59;;;19.97;36.77
6528;BME280;64597;42.664;23.256;2023-05-03T10:15:02;94855.97;;;20.11;35.75
6528;BME280;64597;42.664;23.256;2023-05-03T10:17:34;94849.50;;;20.12;36.00
6528;BME280;64597;42.664;23.256;2023-05-03T10:20:11;94836.81;;;20.23;36.20
6528;BME280;64597;42.664;23.256;2023-05-03T10:25:32;94821.28;;;20.43;34.74
6528;BME280;64597;42.664;23.256;2023-05-03T10:32:55;94806.94;;;20.53;35.32
6528;BME280;64597;42.664;23.256;2023-05-03T10:35:25;94815.84;;;20.48;35.34
6528;BME280;64597;42.664;23.256;2023-05-03T10:37:51;94807.09;;;20.62;36.06
6528;BME280;64597;42.664;23.256;2023-05-03T10:40:17;94810.34;;;20.59;35.30
6528;BME280;64597;42.664;23.256;2023-05-03T10:42:55;94812.91;;;20.69;35.75
6528;BME280;64597;42.664;23.256;2023-05-03T10:45:22;94811.44;;;20.58;35.00
6528;BME280;64597;42.664;23.256;2023-05-03T10:48:20;94812.03;;;20.12;35.99
6528;BME280;64597;42.664;23.256;2023-05-03T10:50:47;94808.41;;;20.03;36.61
6528;BME280;64597;42.664;23.256;2023-05-03T10:53:38;94819.84;;;19.85;36.64
6528;BME280;64597;42.664;23.256;2023-05-03T10:56:07;94815.81;;;19.64;37.80
6528;BME280;64597;42.664;23.256;2023-05-03T11:01:03;94818.19;;;19.42;37.97
6528;BME280;64597;42.664;23.256;2023-05-03T11:08:52;94812.97;;;19.22;38.62
6528;BME280;64597;42.664;23.256;2023-05-03T11:11:17;94800.13;;;19.24;38.73
6528;BME280;64597;42.664;23.256;2023-05-03T11:13:43;94806.69;;;19.41;38.54
6528;BME280;64597;42.664;23.256;2023-05-03T11:16:08;94797.84;;;19.41;38.57
6528;BME280;64597;42.664;23.256;2023-05-03T11:18:35;94796.72;;;19.47;37.98
6528;BME280;64597;42.664;23.256;2023-05-03T11:21:00;94799.00;;;19.35;38.04
6528;BME280;64597;42.664;23.256;2023-05-03T11:23:26;94797.41;;;19.29;38.02
6528;BME280;64597;42.664;23.256;2023-05-03T11:25:53;94802.25;;;19.27;37.79
6528;BME280;64597;42.664;23.256;2023-05-03T11:28:19;94787.28;;;19.26;37.97
6528;BME280;64597;42.664;23.256;2023-05-03T11:30:45;94777.19;;;19.18;38.07
6528;BME280;64597;42.664;23.256;2023-05-03T11:33:11;94778.81;;;19.19;38.38
6528;BME280;64597;42.664;23.256;2023-05-03T11:35:37;94787.56;;;19.24;38.04
6528;BME280;64597;42.664;23.256;2023-05-03T11:38:03;94785.19;;;19.23;38.25
6528;BME280;64597;42.664;23.256;2023-05-03T11:40:28;94783.25;;;19.28;38.27
6528;BME280;64597;42.664;23.256;2023-05-03T11:42:56;94783.75;;;19.30;37.97
6528;BME280;64597;42.664;23.256;2023-05-03T11:45:28;94781.88;;;19.31;38.29
6528;BME280;64597;42.664;23.256;2023-05-03T11:47:55;94766.97;;;19.25;38.09
6528;BME280;64597;42.664;23.256;2023-05-03T11:50:51;94758.25;;;19.43;38.67
6528;BME280;64597;42.664;23.256;2023-05-03T11:53:24;94752.47;;;19.59;38.09
6528;BME280;64597;42.664;23.256;2023-05-03T11:55:52;94760.06;;;19.71;37.81
6528;BME280;64597;42.664;23.256;2023-05-03T11:58:20;94751.03;;;19.67;38.26
6528;BME280;64597;42.664;23.256;2023-05-03T12:00:48;94750.41;;;19.51;38.06
6528;BME280;64597;42.664;23.256;2023-05-03T12:03:25;94739.94;;;19.55;37.81
6528;BME280;64597;42.664;23.256;2023-05-03T12:05:51;94721.38;;;19.63;38.71
6528;BME280;64597;42.664;23.256;2023-05-03T12:08:18;94730.00;;;19.79;38.71
6528;BME280;64597;42.664;23.256;2023-05-03T12:10:46;94736.19;;;19.98;38.71
6528;BME280;64597;42.664;23.256;2023-05-03T12:13:11;94740.00;;;19.92;38.65
6528;BME280;64597;42.664;23.256;2023-05-03T12:15:38;94716.31;;;19.62;39.11
6528;BME280;64597;42.664;23.256;2023-05-03T12:18:06;94716.59;;;19.60;39.18
6528;BME280;64597;42.664;23.256;2023-05-03T12:20:34;94723.44;;;19.48;39.66
6528;BME280;64597;42.664;23.256;2023-05-03T12:23:02;94724.47;;;19.52;39.67
6528;BME280;64597;42.664;23.256;2023-05-03T12:25:29;94721.47;;;19.30;39.73
6528;BME280;64597;42.664;23.256;2023-05-03T12:27:57;94721.75;;;19.05;40.52
6528;BME280;64597;42.664;23.256;2023-05-03T12:30:23;94718.69;;;18.87;40.57
6528;BME280;64597;42.664;23.256;2023-05-03T12:32:53;94728.53;;;18.63;41.00
6528;BME280;64597;42.664;23.256;2023-05-03T12:35:18;94702.19;;;18.13;41.83
6528;BME280;64597;42.664;23.256;2023-05-03T12:37:52;94716.53;;;18.22;41.83
6528;BME280;64597;42.664;23.256;2023-05-03T12:40:18;94734.00;;;17.99;42.54
6528;BME280;64597;42.664;23.256;2023-05-03T12:42:47;94704.03;;;17.74;43.07
6528;BME280;64597;42.664;23.256;2023-05-03T12:45:13;94727.56;;;17.62;43.19
6528;BME280;64597;42.664;23.256;2023-05-03T12:47:41;94727.06;;;17.50;43.71
6528;BME280;64597;42.664;23.256;2023-05-03T12:50:07;94708.94;;;17.37;43.72
6528;BME280;64597;42.664;23.256;2023-05-03T12:52:33;94731.31;;;17.41;44.26
6528;BME280;64597;42.664;23.256;2023-05-03T12:55:04;94723.44;;;17.10;44.77
6528;BME280;64597;42.664;23.256;2023-05-03T12:57:30;94729.56;;;17.01;45.10
6528;BME280;64597;42.664;23.256;2023-05-03T12:59:56;94722.16;;;16.73;45.31
6528;BME280;64597;42.664;23.256;2023-05-03T13:02:21;94726.69;;;16.67;46.11
6528;BME280;64597;42.664;23.256;2023-05-03T13:04:48;94726.69;;;16.57;46.23
6528;BME280;64597;42.664;23.256;2023-05-03T13:07:23;94715.47;;;16.40;47.22
6528;BME280;64597;42.664;23.256;2023-05-03T13:09:54;94722.94;;;16.13;48.23
6528;BME280;64597;42.664;23.256;2023-05-03T13:12:20;94727.47;;;16.22;49.59
6528;BME280;64597;42.664;23.256;2023-05-03T13:14:55;94685.41;;;15.84;50.39
6528;BME280;64597;42.664;23.256;2023-05-03T13:17:20;94689.31;;;15.66;50.92
6528;BME280;64597;42.664;23.256;2023-05-03T13:19:47;94731.91;;;15.82;50.86
6528;BME280;64597;42.664;23.256;2023-05-03T13:22:14;94751.03;;;15.79;50.78
6528;BME280;64597;42.664;23.256;2023-05-03T13:24:41;94727.06;;;15.68;50.85
6528;BME280;64597;42.664;23.256;2023-05-03T13:27:06;94724.19;;;15.18;52.95
6528;BME280;64597;42.664;23.256;2023-05-03T13:29:32;94755.63;;;15.41;53.14